Time;durP1;ratioP1;P1;durP2;ratioP2;P2;SDS_P1;SDS_P2;PMS_P1;PMS_P2;Temp;Humidity;BMP_temperature;BMP_pressure;BME280_temperature;BME280_humidity;BME280_pressure;Samples;Min_cycle;Max_cycle;Signal;HPM_P1;HPM_P2
2021/11/27 00:00:21;;;;;;;11.20;8.80;;;;;;;;;;4996104;28;20198;-70
2021/11/27 00:02:46;;;;;;;10.67;8.70;;;;;;;;;;5002459;28;20190;-70
2021/11/27 00:05:12;;;;;;;12.87;8.93;;;;;;;;;;4996583;28;20274;-70
2021/11/27 00:07:38;;;;;;;11.43;8.73;;;;;;;;;;5005981;28;20285;-70
2021/11/27 00:10:06;;;;;;;10.43;8.27;;;;;;;;;;4996411;28;20321;-70
2021/11/27 00:12:32;;;;;;;11.07;8.10;;;;;;;;;;5005567;28;20587;-70
2021/11/27 00:14:58;;;;;;;9.67;7.70;;;;;;;;;;4994934;28;20245;-70
2021/11/27 00:17:23;;;;;;;9.37;7.63;;;;;;;;;;5007004;28;20240;-70
2021/11/27 00:19:50;;;;;;;9.53;7.77;;;;;;;;;;5008692;28;20266;-70
2021/11/27 00:22:15;;;;;;;9.77;7.70;;;;;;;;;;4998921;28;20552;-70
2021/11/27 00:24:41;;;;;;;10.90;8.53;;;;;;;;;;5007409;28;20216;-70
2021/11/27 00:27:06;;;;;;;10.67;8.37;;;;;;;;;;4996427;28;20571;-70
2021/11/27 00:29:31;;;;;;;9.33;7.90;;;;;;;;;;5009508;28;20179;-69
2021/11/27 00:31:57;;;;;;;9.47;7.80;;;;;;;;;;4997720;28;20216;-70
2021/11/27 00:34:22;;;;;;;10.27;8.00;;;;;;;;;;5012833;28;20236;-70
2021/11/27 00:36:48;;;;;;;9.70;7.90;;;;;;;;;;4994790;28;20186;-70
2021/11/27 00:39:14;;;;;;;8.77;6.67;;;;;;;;;;5006746;28;20182;-69
2021/11/27 00:41:40;;;;;;;9.87;6.93;;;;;;;;;;4995149;28;20183;-69
2021/11/27 00:44:05;;;;;;;8.53;6.93;;;;;;;;;;5007795;28;20194;-69
2021/11/27 00:46:31;;;;;;;8.53;6.43;;;;;;;;;;4996148;28;20178;-69
2021/11/27 00:48:57;;;;;;;9.53;7.40;;;;;;;;;;5009116;28;20187;-69
2021/11/27 00:51:24;;;;;;;8.67;7.30;;;;;;;;;;5004023;28;20662;-69
2021/11/27 00:53:50;;;;;;;8.50;6.77;;;;;;;;;;5002116;28;20215;-69
2021/11/27 00:56:17;;;;;;;9.10;7.07;;;;;;;;;;5002914;28;20214;-69
2021/11/27 00:58:44;;;;;;;10.97;7.20;;;;;;;;;;4995016;28;20290;-69
2021/11/27 01:01:20;;;;;;;9.07;7.30;;;;;;;;;;5004228;28;20237;-70
2021/11/27 01:03:46;;;;;;;9.20;7.30;;;;;;;;;;4999123;28;20201;-70
2021/11/27 01:06:13;;;;;;;9.30;7.83;;;;;;;;;;5002498;28;20553;-70
2021/11/27 01:08:40;;;;;;;9.27;7.77;;;;;;;;;;5004308;28;20190;-70
2021/11/27 01:11:15;;;;;;;9.33;7.77;;;;;;;;;;5006250;28;20198;-70
2021/11/27 01:13:47;;;;;;;9.80;8.00;;;;;;;;;;4995642;28;20221;-70
2021/11/27 01:16:14;;;;;;;10.27;8.17;;;;;;;;;;5006923;28;20191;-70
2021/11/27 01:18:39;;;;;;;10.43;8.00;;;;;;;;;;4996500;28;20486;-70
2021/11/27 01:21:13;;;;;;;10.13;7.87;;;;;;;;;;5012002;28;24262;-70
2021/11/27 01:23:40;;;;;;;11.20;8.77;;;;;;;;;;4994473;28;20192;-70
2021/11/27 01:26:05;;;;;;;11.30;8.87;;;;;;;;;;5009386;28;20236;-70
2021/11/27 01:28:31;;;;;;;10.67;8.53;;;;;;;;;;4995632;28;20186;-70
2021/11/27 01:30:58;;;;;;;12.33;9.40;;;;;;;;;;5010188;28;20202;-70
2021/11/27 01:33:26;;;;;;;10.67;8.17;;;;;;;;;;5004066;28;20224;-70
2021/11/27 01:35:51;;;;;;;12.50;9.47;;;;;;;;;;5009600;28;20269;-70
2021/11/27 01:38:18;;;;;;;11.47;8.83;;;;;;;;;;5005513;28;20711;-71
2021/11/27 01:40:44;;;;;;;12.33;9.23;;;;;;;;;;4993522;28;20210;-71
2021/11/27 01:43:10;;;;;;;12.60;9.23;;;;;;;;;;5003424;28;20198;-71
2021/11/27 01:45:35;;;;;;;13.17;9.77;;;;;;;;;;5001634;28;20285;-71
2021/11/27 01:48:07;;;;;;;13.27;10.33;;;;;;;;;;5006239;28;20273;-71
2021/11/27 01:50:43;;;;;;;12.87;10.43;;;;;;;;;;4996830;28;20204;-71
2021/11/27 01:53:09;;;;;;;12.97;10.13;;;;;;;;;;5006190;28;20566;-71
2021/11/27 01:55:35;;;;;;;13.50;10.40;;;;;;;;;;4991753;28;20206;-71
2021/11/27 01:58:00;;;;;;;14.93;11.57;;;;;;;;;;5005245;28;20237;-71
2021/11/27 02:00:34;;;;;;;13.07;10.50;;;;;;;;;;4996573;28;20199;-71
2021/11/27 02:03:00;;;;;;;14.07;10.60;;;;;;;;;;5000249;28;20214;-71
2021/11/27 02:05:25;;;;;;;13.50;10.40;;;;;;;;;;4998697;28;20546;-71
2021/11/27 02:07:52;;;;;;;13.80;10.90;;;;;;;;;;5000184;28;20187;-71
2021/11/27 02:10:18;;;;;;;14.60;11.27;;;;;;;;;;5007008;28;20215;-71
2021/11/27 02:12:45;;;;;;;13.83;10.43;;;;;;;;;;4995017;28;20217;-71
2021/11/27 02:15:11;;;;;;;14.63;11.20;;;;;;;;;;5003959;28;20193;-71
2021/11/27 02:17:37;;;;;;;13.03;10.37;;;;;;;;;;4998078;28;20249;-71
2021/11/27 02:20:05;;;;;;;15.23;11.43;;;;;;;;;;5004651;28;20664;-71
2021/11/27 02:22:34;;;;;;;15.87;12.17;;;;;;;;;;4995667;28;20192;-71
2021/11/27 02:25:00;;;;;;;15.20;11.37;;;;;;;;;;5006520;28;20195;-71
2021/11/27 02:27:26;;;;;;;16.10;11.83;;;;;;;;;;4995893;28;20658;-71
2021/11/27 02:29:51;;;;;;;15.97;12.23;;;;;;;;;;5001867;28;20241;-71
2021/11/27 02:32:17;;;;;;;14.80;11.30;;;;;;;;;;4998384;28;20269;-71
2021/11/27 02:34:43;;;;;;;16.23;12.70;;;;;;;;;;5004721;28;20180;-71
2021/11/27 02:37:08;;;;;;;16.53;12.47;;;;;;;;;;5002998;28;20229;-71
2021/11/27 02:39:35;;;;;;;16.43;12.80;;;;;;;;;;5001739;28;20226;-71
2021/11/27 02:42:00;;;;;;;15.77;11.77;;;;;;;;;;5006987;28;20280;-71
2021/11/27 02:44:31;;;;;;;16.80;12.40;;;;;;;;;;4996396;28;20673;-71
2021/11/27 02:46:58;;;;;;;18.70;12.40;;;;;;;;;;5012287;28;20674;-71
2021/11/27 02:49:24;;;;;;;15.90;12.37;;;;;;;;;;4994961;28;20267;-71
2021/11/27 02:51:50;;;;;;;15.83;11.87;;;;;;;;;;5016546;28;20626;-71
2021/11/27 02:54:16;;;;;;;16.10;12.23;;;;;;;;;;4997009;28;20210;-71
2021/11/27 02:56:43;;;;;;;15.13;11.37;;;;;;;;;;5005407;28;20215;-71
2021/11/27 02:59:29;;;;;;;15.10;11.63;;;;;;;;;;4994763;28;20200;-71
2021/11/27 03:01:58;;;;;;;16.30;12.23;;;;;;;;;;5000843;28;20179;-70
2021/11/27 03:04:26;;;;;;;17.50;13.10;;;;;;;;;;4993652;28;20608;-70
2021/11/27 03:06:52;;;;;;;16.87;12.90;;;;;;;;;;5002617;28;20187;-70
2021/11/27 03:09:19;;;;;;;19.80;13.57;;;;;;;;;;4996243;28;20227;-70
2021/11/27 03:11:49;;;;;;;18.87;13.87;;;;;;;;;;5003082;28;20203;-70
2021/11/27 03:14:14;;;;;;;19.47;14.50;;;;;;;;;;4994284;28;20681;-70
2021/11/27 03:16:39;;;;;;;22.83;16.43;;;;;;;;;;5003535;28;20199;-69
2021/11/27 03:19:05;;;;;;;22.23;15.23;;;;;;;;;;5006139;28;20241;-69
2021/11/27 03:21:31;;;;;;;20.30;15.20;;;;;;;;;;4997681;28;20640;-70
2021/11/27 03:23:57;;;;;;;18.90;14.83;;;;;;;;;;5016889;28;20186;-70
2021/11/27 03:26:22;;;;;;;21.73;15.43;;;;;;;;;;4999419;28;20187;-70
2021/11/27 03:28:48;;;;;;;21.07;15.20;;;;;;;;;;5019542;28;20183;-69
2021/11/27 03:31:14;;;;;;;18.33;13.87;;;;;;;;;;4998276;28;20207;-69
2021/11/27 03:33:39;;;;;;;21.50;15.47;;;;;;;;;;5014829;28;20274;-69
2021/11/27 03:36:06;;;;;;;20.00;14.67;;;;;;;;;;4998894;28;20550;-69
2021/11/27 03:38:32;;;;;;;22.83;16.20;;;;;;;;;;5012859;28;20262;-69
2021/11/27 03:40:58;;;;;;;22.53;16.17;;;;;;;;;;4999405;28;20206;-69
2021/11/27 03:43:23;;;;;;;21.87;15.03;;;;;;;;;;5007207;28;20284;-69
2021/11/27 03:45:49;;;;;;;21.00;15.23;;;;;;;;;;4997147;28;20187;-69
2021/11/27 03:48:17;;;;;;;21.23;15.87;;;;;;;;;;5008979;28;20663;-69
2021/11/27 03:50:49;;;;;;;23.33;15.40;;;;;;;;;;5007252;28;20249;-69
2021/11/27 03:53:23;;;;;;;21.20;15.30;;;;;;;;;;5004043;28;20606;-69
2021/11/27 03:55:49;;;;;;;25.20;16.47;;;;;;;;;;5003884;28;20293;-69
2021/11/27 03:58:15;;;;;;;21.90;16.63;;;;;;;;;;4997383;28;20271;-69
2021/11/27 04:00:42;;;;;;;24.80;16.97;;;;;;;;;;5007512;28;20190;-70
2021/11/27 04:03:09;;;;;;;25.10;16.50;;;;;;;;;;4989545;28;20191;-70
2021/11/27 04:05:41;;;;;;;25.90;17.80;;;;;;;;;;5005818;28;20194;-69
2021/11/27 04:08:06;;;;;;;26.63;18.20;;;;;;;;;;4996666;28;20186;-69
2021/11/27 04:10:31;;;;;;;28.83;19.20;;;;;;;;;;5009552;28;20325;-70
2021/11/27 04:12:57;;;;;;;27.87;19.03;;;;;;;;;;4995992;28;20207;-69
2021/11/27 04:15:23;;;;;;;31.57;20.47;;;;;;;;;;5010512;28;20183;-69
2021/11/27 04:17:49;;;;;;;30.97;20.17;;;;;;;;;;4998546;28;20294;-69
2021/11/27 04:20:15;;;;;;;28.77;19.60;;;;;;;;;;5010724;28;20261;-69
2021/11/27 04:22:40;;;;;;;29.77;19.53;;;;;;;;;;4996647;28;20287;-69
2021/11/27 04:25:07;;;;;;;27.50;18.83;;;;;;;;;;5011166;28;20187;-69
2021/11/27 04:27:32;;;;;;;27.47;18.33;;;;;;;;;;5007123;28;20178;-69
2021/11/27 04:29:57;;;;;;;27.90;18.70;;;;;;;;;;5000740;28;20186;-70
2021/11/27 04:32:23;;;;;;;27.00;19.03;;;;;;;;;;5004868;28;20290;-69
2021/11/27 04:34:48;;;;;;;26.17;17.60;;;;;;;;;;5001270;28;20625;-69
2021/11/27 04:37:15;;;;;;;28.27;18.70;;;;;;;;;;5005994;28;20191;-69
2021/11/27 04:39:41;;;;;;;27.43;17.80;;;;;;;;;;5004124;28;20185;-69
2021/11/27 04:42:07;;;;;;;24.13;17.20;;;;;;;;;;5008511;28;20190;-69
2021/11/27 04:44:33;;;;;;;24.50;17.37;;;;;;;;;;5002730;28;20586;-69
2021/11/27 04:46:59;;;;;;;25.10;16.93;;;;;;;;;;5006760;28;20598;-70
2021/11/27 04:49:25;;;;;;;24.87;17.47;;;;;;;;;;5000858;28;20187;-69
2021/11/27 04:51:50;;;;;;;28.47;18.00;;;;;;;;;;5005220;28;20203;-69
2021/11/27 04:54:15;;;;;;;26.50;17.43;;;;;;;;;;4995813;28;20191;-69
2021/11/27 04:56:41;;;;;;;27.93;18.53;;;;;;;;;;5002263;28;20623;-69
2021/11/27 04:59:06;;;;;;;24.53;17.50;;;;;;;;;;5009653;28;20199;-69
2021/11/27 05:01:33;;;;;;;25.83;18.10;;;;;;;;;;4996146;28;20199;-69
2021/11/27 05:03:58;;;;;;;27.63;17.77;;;;;;;;;;5008124;28;20179;-69
2021/11/27 05:06:24;;;;;;;28.63;17.70;;;;;;;;;;4995424;28;20210;-69
2021/11/27 05:08:49;;;;;;;24.77;16.80;;;;;;;;;;4998535;28;20186;-69
2021/11/27 05:11:15;;;;;;;27.47;17.77;;;;;;;;;;5000765;28;20324;-69
2021/11/27 05:13:40;;;;;;;26.27;17.90;;;;;;;;;;5007262;28;20194;-69
2021/11/27 05:16:07;;;;;;;30.23;19.70;;;;;;;;;;4996747;28;20187;-69
2021/11/27 05:18:33;;;;;;;30.83;20.63;;;;;;;;;;5002881;28;20214;-70
2021/11/27 05:20:59;;;;;;;33.60;21.27;;;;;;;;;;4993899;28;20569;-70
2021/11/27 05:23:26;;;;;;;35.23;21.53;;;;;;;;;;5003641;28;20183;-70
2021/11/27 05:25:51;;;;;;;31.23;20.03;;;;;;;;;;4999926;28;20178;-70
2021/11/27 05:28:16;;;;;;;29.63;20.07;;;;;;;;;;5002755;28;20245;-70
2021/11/27 05:30:42;;;;;;;33.20;19.83;;;;;;;;;;5008565;28;20175;-70
2021/11/27 05:33:10;;;;;;;30.63;19.07;;;;;;;;;;4998365;28;20190;-70
2021/11/27 05:35:37;;;;;;;26.67;18.57;;;;;;;;;;5007036;28;20198;-70
2021/11/27 05:38:03;;;;;;;28.60;18.67;;;;;;;;;;4997109;28;20677;-70
2021/11/27 05:40:29;;;;;;;28.20;18.90;;;;;;;;;;5005516;28;20187;-70
2021/11/27 05:42:55;;;;;;;30.93;20.40;;;;;;;;;;4995737;28;20187;-70
2021/11/27 05:45:27;;;;;;;28.83;19.17;;;;;;;;;;5003504;28;20186;-71
2021/11/27 05:47:52;;;;;;;30.77;19.97;;;;;;;;;;4995754;28;20213;-73
2021/11/27 05:50:18;;;;;;;25.03;17.37;;;;;;;;;;5007736;28;20187;-71
2021/11/27 05:52:43;;;;;;;27.77;17.73;;;;;;;;;;4995664;28;20204;-72
2021/11/27 05:55:09;;;;;;;29.63;19.37;;;;;;;;;;5000959;28;20289;-72
2021/11/27 05:57:35;;;;;;;29.37;19.07;;;;;;;;;;4993836;28;20197;-72
2021/11/27 06:00:00;;;;;;;31.40;19.87;;;;;;;;;;5008874;28;20230;-72
2021/11/27 06:02:26;;;;;;;30.67;19.57;;;;;;;;;;5002858;28;20186;-71
2021/11/27 06:04:51;;;;;;;30.57;19.00;;;;;;;;;;4988975;28;20190;-71
2021/11/27 06:07:16;;;;;;;31.67;19.57;;;;;;;;;;4999115;28;20182;-72
2021/11/27 06:09:42;;;;;;;29.67;17.50;;;;;;;;;;4996251;28;20283;-72
2021/11/27 06:12:07;;;;;;;29.80;17.53;;;;;;;;;;5002704;28;20629;-72
2021/11/27 06:14:34;;;;;;;28.53;16.33;;;;;;;;;;4992893;28;20194;-72
2021/11/27 06:17:00;;;;;;;26.23;15.57;;;;;;;;;;5003744;28;20565;-71
2021/11/27 06:19:25;;;;;;;23.80;12.67;;;;;;;;;;5003241;28;20194;-71
2021/11/27 06:21:50;;;;;;;21.07;12.63;;;;;;;;;;5007368;28;20261;-72
2021/11/27 06:24:16;;;;;;;21.70;11.43;;;;;;;;;;4994682;28;20345;-72
2021/11/27 06:26:41;;;;;;;17.93;10.07;;;;;;;;;;5005995;28;20190;-72
2021/11/27 06:29:06;;;;;;;16.07;8.80;;;;;;;;;;4998902;28;20283;-72
2021/11/27 06:31:32;;;;;;;19.43;9.17;;;;;;;;;;5002255;28;20545;-72
2021/11/27 06:33:57;;;;;;;15.73;8.40;;;;;;;;;;5001366;28;20588;-72
2021/11/27 06:36:25;;;;;;;15.40;8.50;;;;;;;;;;5003327;28;20268;-71
2021/11/27 06:38:50;;;;;;;20.90;9.13;;;;;;;;;;5006219;28;20206;-71
2021/11/27 06:41:17;;;;;;;15.53;8.67;;;;;;;;;;4997423;28;20187;-72
2021/11/27 06:43:43;;;;;;;18.40;8.30;;;;;;;;;;5001227;28;20227;-72
2021/11/27 06:46:09;;;;;;;21.93;8.60;;;;;;;;;;5000990;28;20213;-72
2021/11/27 06:48:34;;;;;;;17.83;8.73;;;;;;;;;;5004922;28;20674;-72
2021/11/27 06:51:00;;;;;;;16.73;8.40;;;;;;;;;;4999948;28;20186;-72
2021/11/27 06:53:25;;;;;;;15.97;8.57;;;;;;;;;;5002833;28;20183;-71
2021/11/27 06:55:50;;;;;;;14.57;6.63;;;;;;;;;;4995024;28;20214;-71
2021/11/27 06:58:16;;;;;;;12.80;6.70;;;;;;;;;;5006156;28;20206;-72
2021/11/27 07:00:41;;;;;;;14.83;7.13;;;;;;;;;;5008450;28;20191;-71
2021/11/27 07:03:06;;;;;;;12.63;6.53;;;;;;;;;;5001418;28;20170;-72
2021/11/27 07:05:32;;;;;;;14.97;7.23;;;;;;;;;;5009135;28;20639;-72
2021/11/27 07:07:57;;;;;;;12.27;6.00;;;;;;;;;;4995929;28;20638;-71
2021/11/27 07:10:22;;;;;;;14.50;6.83;;;;;;;;;;5007761;28;20229;-71
2021/11/27 07:12:48;;;;;;;12.93;6.77;;;;;;;;;;4999926;28;20215;-71
2021/11/27 07:15:13;;;;;;;12.97;6.37;;;;;;;;;;5006920;28;20182;-71
2021/11/27 07:17:40;;;;;;;10.70;5.87;;;;;;;;;;4997710;28;20817;-71
2021/11/27 07:20:07;;;;;;;10.03;5.60;;;;;;;;;;4309835;28;10000759;-71
2021/11/27 07:22:33;;;;;;;11.53;6.00;;;;;;;;;;4994168;28;20246;-71
2021/11/27 07:24:58;;;;;;;13.83;6.00;;;;;;;;;;5003571;28;20191;-71
2021/11/27 07:27:24;;;;;;;13.90;7.07;;;;;;;;;;4996952;28;21636;-72
2021/11/27 07:29:49;;;;;;;11.97;6.30;;;;;;;;;;5003759;28;20184;-72
2021/11/27 07:32:15;;;;;;;12.60;6.50;;;;;;;;;;5000664;28;20226;-71
2021/11/27 07:34:40;;;;;;;11.10;5.73;;;;;;;;;;4993115;28;20188;-71
2021/11/27 07:37:06;;;;;;;11.57;5.97;;;;;;;;;;4999095;28;20179;-72
2021/11/27 07:39:31;;;;;;;10.83;6.10;;;;;;;;;;4994857;28;20656;-71
2021/11/27 07:41:57;;;;;;;13.07;5.27;;;;;;;;;;4999473;28;20187;-72
2021/11/27 07:44:22;;;;;;;8.97;4.97;;;;;;;;;;4992068;28;20194;-71
2021/11/27 07:46:53;;;;;;;7.53;4.67;;;;;;;;;;5005212;28;20183;-72
2021/11/27 07:49:22;;;;;;;8.00;5.27;;;;;;;;;;4996083;28;20183;-72
2021/11/27 07:51:47;;;;;;;10.67;5.00;;;;;;;;;;5003895;28;20215;-72
2021/11/27 07:54:12;;;;;;;6.17;4.80;;;;;;;;;;4994162;28;20244;-72
2021/11/27 07:56:38;;;;;;;6.27;4.40;;;;;;;;;;5005894;28;20573;-72
2021/11/27 07:59:04;;;;;;;6.47;4.00;;;;;;;;;;4995078;28;20561;-71
2021/11/27 08:01:30;;;;;;;6.40;3.80;;;;;;;;;;5010188;28;20914;-72
2021/11/27 08:03:56;;;;;;;7.83;3.80;;;;;;;;;;4999012;28;20242;-71
2021/11/27 08:06:21;;;;;;;5.97;3.93;;;;;;;;;;5000936;28;20206;-70
2021/11/27 08:08:47;;;;;;;7.13;3.70;;;;;;;;;;5001066;28;20178;-70
2021/11/27 08:11:12;;;;;;;5.63;3.47;;;;;;;;;;4999583;28;20206;-70
2021/11/27 08:13:37;;;;;;;3.57;3.00;;;;;;;;;;5001796;28;20612;-71
2021/11/27 08:16:04;;;;;;;5.40;3.30;;;;;;;;;;4994239;28;20191;-71
2021/11/27 08:18:29;;;;;;;3.70;3.20;;;;;;;;;;5000296;28;20183;-71
2021/11/27 08:20:54;;;;;;;3.53;3.00;;;;;;;;;;4992519;28;20190;-70
2021/11/27 08:23:20;;;;;;;4.87;2.70;;;;;;;;;;5002928;28;20191;-70
2021/11/27 08:25:46;;;;;;;4.07;2.63;;;;;;;;;;5000347;28;20198;-70
2021/11/27 08:28:13;;;;;;;3.63;2.80;;;;;;;;;;5006161;28;20233;-70
2021/11/27 08:30:38;;;;;;;3.10;2.60;;;;;;;;;;4984949;28;21124;-70
2021/11/27 08:33:04;;;;;;;3.77;2.00;;;;;;;;;;4997638;28;20258;-70
2021/11/27 08:35:29;;;;;;;2.83;2.20;;;;;;;;;;4997086;28;20198;-71
2021/11/27 08:37:54;;;;;;;2.77;2.10;;;;;;;;;;4994628;28;20186;-70
2021/11/27 08:40:20;;;;;;;2.87;1.80;;;;;;;;;;4998689;28;20237;-71
2021/11/27 08:42:45;;;;;;;3.83;2.77;;;;;;;;;;4999253;28;20191;-70
2021/11/27 08:45:12;;;;;;;3.70;2.23;;;;;;;;;;5002644;28;20670;-72
2021/11/27 08:47:38;;;;;;;3.73;2.20;;;;;;;;;;4998807;28;20320;-71
2021/11/27 08:50:04;;;;;;;2.90;2.10;;;;;;;;;;5007465;28;20345;-71
2021/11/27 08:52:29;;;;;;;2.30;2.03;;;;;;;;;;4996768;28;20202;-71
2021/11/27 08:54:55;;;;;;;3.30;2.23;;;;;;;;;;5002667;28;20211;-71
2021/11/27 08:57:21;;;;;;;3.27;2.00;;;;;;;;;;4994790;28;20537;-71
2021/11/27 08:59:46;;;;;;;3.17;1.70;;;;;;;;;;5002321;28;20282;-71
2021/11/27 09:02:12;;;;;;;3.03;2.30;;;;;;;;;;4995584;28;20284;-71
2021/11/27 09:04:38;;;;;;;2.00;1.80;;;;;;;;;;5005141;28;20207;-71
2021/11/27 09:07:04;;;;;;;2.97;2.13;;;;;;;;;;5009662;28;20316;-71
2021/11/27 09:09:29;;;;;;;2.60;2.10;;;;;;;;;;4993175;28;20309;-71
2021/11/27 09:11:55;;;;;;;2.80;2.20;;;;;;;;;;5009691;28;20533;-71
2021/11/27 09:14:22;;;;;;;3.40;2.03;;;;;;;;;;4993077;28;20215;-71
2021/11/27 09:16:50;;;;;;;2.83;2.03;;;;;;;;;;4998108;28;20197;-71
2021/11/27 09:19:16;;;;;;;3.80;2.77;;;;;;;;;;4990874;28;20289;-71
2021/11/27 09:21:41;;;;;;;2.57;1.97;;;;;;;;;;5001059;28;20266;-71
2021/11/27 09:24:06;;;;;;;3.10;2.20;;;;;;;;;;4994000;28;20218;-72
2021/11/27 09:26:34;;;;;;;2.87;2.20;;;;;;;;;;5001241;28;20603;-72
2021/11/27 09:28:59;;;;;;;3.80;2.30;;;;;;;;;;4992916;28;20195;-72
2021/11/27 09:31:25;;;;;;;3.20;2.20;;;;;;;;;;5002274;28;20575;-72
2021/11/27 09:33:50;;;;;;;2.33;1.80;;;;;;;;;;4993648;28;20223;-71
2021/11/27 09:36:17;;;;;;;2.70;1.93;;;;;;;;;;5005297;28;20233;-72
2021/11/27 09:38:43;;;;;;;2.87;2.10;;;;;;;;;;4998941;28;20183;-72
2021/11/27 09:41:26;;;;;;;2.70;2.00;;;;;;;;;;5001327;28;20199;-71
2021/11/27 09:43:54;;;;;;;3.60;2.00;;;;;;;;;;4997503;28;20210;-71
2021/11/27 09:46:21;;;;;;;2.93;2.03;;;;;;;;;;4989527;28;20190;-72
2021/11/27 09:48:51;;;;;;;3.40;2.20;;;;;;;;;;5002834;28;20187;-72
2021/11/27 09:51:21;;;;;;;2.70;1.90;;;;;;;;;;4994414;28;20222;-72
2021/11/27 09:53:48;;;;;;;3.40;2.50;;;;;;;;;;4998290;28;20182;-72
2021/11/27 09:56:15;;;;;;;3.20;2.53;;;;;;;;;;4988789;28;20294;-71
2021/11/27 09:58:41;;;;;;;2.53;2.20;;;;;;;;;;4997361;28;20317;-72
2021/11/27 10:01:07;;;;;;;3.17;2.47;;;;;;;;;;4988974;28;20194;-71
2021/11/27 10:03:33;;;;;;;3.47;2.47;;;;;;;;;;4996196;28;20264;-71
2021/11/27 10:05:59;;;;;;;2.70;2.00;;;;;;;;;;4989757;28;20253;-71
2021/11/27 10:08:25;;;;;;;4.53;2.90;;;;;;;;;;4991978;28;20205;-72
2021/11/27 10:10:51;;;;;;;3.30;2.43;;;;;;;;;;4991990;28;20231;-72
2021/11/27 10:13:21;;;;;;;3.17;2.10;;;;;;;;;;5002976;28;20248;-72
2021/11/27 10:15:47;;;;;;;3.80;2.20;;;;;;;;;;5002700;28;20562;-72
2021/11/27 10:18:22;;;;;;;4.03;2.30;;;;;;;;;;4993688;28;20201;-72
2021/11/27 10:21:08;;;;;;;4.20;2.10;;;;;;;;;;4999273;28;20676;-72
2021/11/27 10:23:33;;;;;;;4.47;2.33;;;;;;;;;;4995147;28;20292;-72
2021/11/27 10:25:58;;;;;;;7.33;5.37;;;;;;;;;;5003903;28;20226;-72
2021/11/27 10:28:24;;;;;;;4.50;3.20;;;;;;;;;;4999337;28;20217;-72
2021/11/27 10:30:59;;;;;;;2.50;2.00;;;;;;;;;;5004290;28;20265;-73
2021/11/27 10:33:25;;;;;;;2.97;2.00;;;;;;;;;;4996916;28;20303;-72
2021/11/27 10:36:20;;;;;;;4.67;3.40;;;;;;;;;;5007197;28;20289;-72
2021/11/27 10:38:48;;;;;;;2.93;1.83;;;;;;;;;;5004845;28;20183;-73
2021/11/27 10:41:18;;;;;;;4.37;2.17;;;;;;;;;;5005190;28;20210;-73
2021/11/27 10:44:01;;;;;;;2.70;1.77;;;;;;;;;;4998483;28;20182;-71
2021/11/27 10:46:29;;;;;;;2.83;1.70;;;;;;;;;;5009849;28;20650;-72
2021/11/27 10:48:55;;;;;;;2.60;1.47;;;;;;;;;;5002149;28;20191;-72
2021/11/27 10:51:21;;;;;;;2.17;1.40;;;;;;;;;;5002329;28;20203;-72
2021/11/27 10:53:59;;;;;;;2.97;1.57;;;;;;;;;;4996817;28;20187;-72
2021/11/27 10:56:45;;;;;;;2.13;1.80;;;;;;;;;;5008553;28;20276;-72
2021/11/27 10:59:11;;;;;;;1.63;1.50;;;;;;;;;;5003081;28;20270;-70
2021/11/27 11:02:00;;;;;;;1.53;1.30;;;;;;;;;;5002419;28;20179;-71
2021/11/27 11:04:26;;;;;;;3.20;1.67;;;;;;;;;;4999846;28;20183;-72
2021/11/27 11:07:19;;;;;;;2.67;1.73;;;;;;;;;;5006286;28;20253;-72
2021/11/27 11:10:20;;;;;;;1.53;1.43;;;;;;;;;;4997030;28;20240;-73
2021/11/27 11:12:50;;;;;;;2.60;2.20;;;;;;;;;;4998040;28;20202;-72
2021/11/27 11:15:31;;;;;;;4.10;2.00;;;;;;;;;;4996093;28;20187;-72
2021/11/27 11:18:21;;;;;;;4.07;2.40;;;;;;;;;;5011280;28;20281;-72
2021/11/27 11:20:59;;;;;;;4.07;2.60;;;;;;;;;;4996988;28;20183;-72
2021/11/27 11:23:35;;;;;;;4.50;2.13;;;;;;;;;;5007603;28;20182;-71
2021/11/27 11:26:09;;;;;;;2.33;1.60;;;;;;;;;;4993767;28;20194;-71
2021/11/27 11:28:35;;;;;;;1.60;1.20;;;;;;;;;;5012339;28;20190;-71
2021/11/27 11:31:05;;;;;;;2.40;1.60;;;;;;;;;;4994631;28;20209;-71
2021/11/27 11:33:34;;;;;;;2.57;1.80;;;;;;;;;;5008193;28;20383;-70
2021/11/27 11:36:01;;;;;;;2.77;2.10;;;;;;;;;;5007011;28;20268;-72
2021/11/27 11:38:27;;;;;;;2.50;2.00;;;;;;;;;;5008185;28;20187;-71
2021/11/27 11:40:53;;;;;;;2.10;1.80;;;;;;;;;;4997442;28;20687;-71
2021/11/27 11:43:19;;;;;;;1.67;1.40;;;;;;;;;;5006334;28;20279;-72
2021/11/27 11:45:44;;;;;;;1.70;1.53;;;;;;;;;;4997835;28;20649;-72
2021/11/27 11:48:10;;;;;;;1.63;1.43;;;;;;;;;;5009571;28;20186;-72
2021/11/27 11:50:42;;;;;;;1.33;1.23;;;;;;;;;;5005286;28;20171;-71
2021/11/27 11:53:24;;;;;;;1.73;1.40;;;;;;;;;;5001866;28;20215;-72
2021/11/27 11:55:59;;;;;;;1.57;1.47;;;;;;;;;;5007350;28;20217;-70
2021/11/27 11:58:26;;;;;;;2.23;1.80;;;;;;;;;;5001622;28;20213;-70
2021/11/27 12:01:00;;;;;;;2.73;1.90;;;;;;;;;;5002069;28;20317;-70
2021/11/27 12:03:31;;;;;;;2.50;2.00;;;;;;;;;;4998169;28;20757;-70
2021/11/27 12:06:06;;;;;;;1.50;1.40;;;;;;;;;;5007088;28;20187;-70
2021/11/27 12:08:48;;;;;;;3.13;1.93;;;;;;;;;;4996212;28;20202;-70
2021/11/27 12:11:42;;;;;;;2.07;1.80;;;;;;;;;;5005445;28;20227;-69
2021/11/27 12:14:34;;;;;;;3.37;2.13;;;;;;;;;;5002745;28;20274;-69
2021/11/27 12:17:14;;;;;;;2.63;2.37;;;;;;;;;;4997360;28;20646;-69
2021/11/27 12:19:44;;;;;;;2.57;2.13;;;;;;;;;;5004081;28;20826;-70
2021/11/27 12:22:31;;;;;;;2.93;2.20;;;;;;;;;;4998363;28;20187;-69
2021/11/27 12:25:16;;;;;;;3.90;2.53;;;;;;;;;;5004986;28;20193;-70
2021/11/27 12:28:04;;;;;;;2.93;2.53;;;;;;;;;;4999418;28;20199;-70
2021/11/27 12:30:54;;;;;;;4.73;2.97;;;;;;;;;;5007258;28;20190;-69
2021/11/27 12:33:41;;;;;;;3.43;3.03;;;;;;;;;;4998697;28;20254;-69
2021/11/27 12:36:07;;;;;;;4.70;3.13;;;;;;;;;;5008030;28;20273;-70
2021/11/27 12:38:33;;;;;;;4.77;3.00;;;;;;;;;;4994857;28;20278;-70
2021/11/27 12:40:59;;;;;;;3.93;3.20;;;;;;;;;;5007621;28;20215;-70
2021/11/27 12:43:25;;;;;;;4.37;3.40;;;;;;;;;;4991527;28;20600;-70
2021/11/27 12:45:53;;;;;;;7.27;3.97;;;;;;;;;;5003708;28;20271;-70
2021/11/27 12:48:37;;;;;;;5.73;3.83;;;;;;;;;;5007729;28;20241;-69
2021/11/27 12:51:17;;;;;;;8.27;3.70;;;;;;;;;;5006370;28;20197;-70
2021/11/27 12:53:58;;;;;;;5.53;3.53;;;;;;;;;;5001283;28;20248;-70
2021/11/27 12:56:24;;;;;;;4.20;3.40;;;;;;;;;;5001766;28;20206;-70
2021/11/27 12:58:49;;;;;;;5.87;4.10;;;;;;;;;;5007892;28;20475;-70
2021/11/27 13:01:28;;;;;;;8.33;4.60;;;;;;;;;;4998130;28;20549;-69
2021/11/27 13:03:55;;;;;;;8.53;4.63;;;;;;;;;;5005622;28;20600;-69
2021/11/27 13:06:21;;;;;;;8.90;4.80;;;;;;;;;;5000634;28;20198;-70
2021/11/27 13:08:47;;;;;;;8.27;5.40;;;;;;;;;;5012556;28;20195;-70
2021/11/27 13:11:16;;;;;;;7.23;5.07;;;;;;;;;;4997154;28;20193;-70
2021/11/27 13:13:43;;;;;;;7.53;5.30;;;;;;;;;;5010391;28;20806;-70
2021/11/27 13:16:13;;;;;;;12.63;6.80;;;;;;;;;;4999120;28;20321;-70
2021/11/27 13:18:57;;;;;;;12.17;6.73;;;;;;;;;;5010484;28;20247;-70
2021/11/27 13:21:26;;;;;;;15.43;7.20;;;;;;;;;;4998560;28;20205;-70
2021/11/27 13:23:54;;;;;;;13.03;6.43;;;;;;;;;;5008748;28;20198;-70
2021/11/27 13:26:22;;;;;;;15.07;7.67;;;;;;;;;;4995612;28;20594;-70
2021/11/27 13:28:54;;;;;;;15.60;8.27;;;;;;;;;;5008301;28;20187;-70
2021/11/27 13:31:37;;;;;;;16.43;8.97;;;;;;;;;;4996823;28;20277;-70
2021/11/27 13:34:13;;;;;;;18.77;10.17;;;;;;;;;;5002108;28;20252;-70
2021/11/27 13:36:42;;;;;;;16.87;10.13;;;;;;;;;;4994225;28;20237;-69
2021/11/27 13:39:13;;;;;;;26.03;11.07;;;;;;;;;;5000547;28;20234;-69
2021/11/27 13:41:39;;;;;;;22.90;11.10;;;;;;;;;;5005210;28;20183;-70
2021/11/27 13:44:09;;;;;;;27.87;13.50;;;;;;;;;;5007563;28;20189;-69
2021/11/27 13:46:52;;;;;;;32.67;14.73;;;;;;;;;;5001709;28;20201;-70
2021/11/27 13:49:32;;;;;;;29.77;12.87;;;;;;;;;;5002570;28;20273;-70
2021/11/27 13:51:59;;;;;;;31.87;14.10;;;;;;;;;;5001275;28;20193;-71
2021/11/27 13:54:28;;;;;;;28.30;13.50;;;;;;;;;;5005458;28;20197;-71
2021/11/27 13:56:54;;;;;;;30.20;14.37;;;;;;;;;;5006193;28;20712;-70
2021/11/27 13:59:29;;;;;;;29.47;13.23;;;;;;;;;;5002071;28;20198;-71
2021/11/27 14:02:03;;;;;;;38.30;15.30;;;;;;;;;;5004388;28;20666;-71
2021/11/27 14:04:30;;;;;;;26.87;13.90;;;;;;;;;;4992309;28;20181;-71
2021/11/27 14:07:06;;;;;;;36.80;15.63;;;;;;;;;;5016309;28;20191;-72
2021/11/27 14:09:54;;;;;;;28.70;14.33;;;;;;;;;;4996615;28;20677;-72
2021/11/27 14:12:49;;;;;;;31.03;14.27;;;;;;;;;;5014782;28;20225;-72
2021/11/27 14:15:41;;;;;;;41.47;16.00;;;;;;;;;;5003110;28;20187;-72
2021/11/27 14:18:17;;;;;;;41.97;16.47;;;;;;;;;;4993300;28;20206;-72
2021/11/27 14:20:52;;;;;;;35.47;16.93;;;;;;;;;;4999435;28;20206;-72
2021/11/27 14:23:23;;;;;;;33.50;15.37;;;;;;;;;;4992042;28;20197;-72
2021/11/27 14:26:09;;;;;;;44.27;17.10;;;;;;;;;;5003917;28;20184;-72
2021/11/27 14:28:40;;;;;;;43.93;17.83;;;;;;;;;;4995875;28;20178;-73
2021/11/27 14:31:32;;;;;;;44.60;17.20;;;;;;;;;;5005711;28;20190;-73
2021/11/27 14:34:00;;;;;;;39.67;18.03;;;;;;;;;;4996271;28;20253;-72
2021/11/27 14:36:31;;;;;;;37.43;17.43;;;;;;;;;;5005369;28;20237;-72
2021/11/27 14:39:16;;;;;;;41.67;16.57;;;;;;;;;;4997592;28;20310;-74